createdAt,value
2019-04-01T00:01:17.888Z,20.75
2019-04-01T00:03:46.683Z,20.35
2019-04-01T00:06:15.210Z,20.43
2019-04-01T00:08:43.948Z,22.87
2019-04-01T00:11:12.403Z,23.30
2019-04-01T00:13:41.247Z,21.68
2019-04-01T00:16:10.047Z,22.13
2019-04-01T00:18:38.593Z,23.57
2019-04-01T00:21:07.042Z,23.25
2019-04-01T00:23:35.523Z,24.40
2019-04-01T00:26:04.392Z,26.00
2019-04-01T00:28:33.187Z,23.32
2019-04-01T00:31:01.979Z,24.02
2019-04-01T00:33:30.454Z,24.20
2019-04-01T00:35:59.258Z,24.55
2019-04-01T00:38:28.056Z,21.85
2019-04-01T00:40:56.845Z,25.37
2019-04-01T00:43:43.543Z,26.90
2019-04-01T00:46:13.835Z,23.57
2019-04-01T00:48:42.335Z,23.07
2019-04-01T00:51:12.348Z,25.75
2019-04-01T00:53:41.152Z,21.35
2019-04-01T00:56:09.683Z,22.62
2019-04-01T00:58:38.160Z,25.32
2019-04-01T01:01:06.887Z,27.58
2019-04-01T01:03:35.727Z,22.20
2019-04-01T01:06:04.184Z,20.08
2019-04-01T01:08:32.733Z,23.95
2019-04-01T01:11:01.260Z,23.25
2019-04-01T01:13:30.083Z,20.88
2019-04-01T01:15:58.879Z,22.13
2019-04-01T01:18:27.671Z,21.82
2019-04-01T01:20:56.199Z,21.97
2019-04-01T01:23:24.947Z,22.90
2019-04-01T01:25:53.411Z,25.88
2019-04-01T01:28:22.223Z,27.05
2019-04-01T01:30:51.026Z,25.85
2019-04-01T01:33:19.772Z,21.87
2019-04-01T01:35:48.236Z,24.25
2019-04-01T01:38:16.772Z,21.35
2019-04-01T01:40:45.255Z,23.38
2019-04-01T01:43:14.073Z,26.73
2019-04-01T01:45:42.623Z,26.55
2019-04-01T01:48:11.087Z,21.25
2019-04-01T01:50:39.927Z,26.80
2019-04-01T01:53:08.720Z,25.25
2019-04-01T01:55:37.211Z,23.57
2019-04-01T01:58:05.743Z,20.75
2019-04-01T02:00:34.663Z,23.12
2019-04-01T02:03:03.497Z,23.60
2019-04-01T02:05:32.379Z,24.70
2019-04-01T02:08:00.847Z,24.15
2019-04-01T02:10:29.323Z,21.82
2019-04-01T02:12:57.778Z,18.52
2019-04-01T02:15:26.255Z,22.82
2019-04-01T02:17:55.012Z,24.87
2019-04-01T02:20:23.493Z,26.35
2019-04-01T02:22:51.946Z,21.75
2019-04-01T02:25:20.434Z,26.95
2019-04-01T02:27:48.886Z,19.20
2019-04-01T02:30:17.375Z,21.23
2019-04-01T02:32:45.908Z,25.27
2019-04-01T02:35:14.391Z,19.55
2019-04-01T02:37:43.212Z,20.80
2019-04-01T02:40:11.689Z,20.62
2019-04-01T02:42:55.534Z,26.02
2019-04-01T02:45:24.020Z,25.60
2019-04-01T02:47:52.911Z,24.15
2019-04-01T02:50:21.400Z,20.92
2019-04-01T02:52:49.889Z,21.07
2019-04-01T02:55:18.780Z,20.08
2019-04-01T02:57:47.309Z,22.48
2019-04-01T03:00:17.490Z,25.15
2019-04-01T03:02:46.029Z,23.60
2019-04-01T03:05:14.873Z,22.37
2019-04-01T03:07:43.407Z,23.70
2019-04-01T03:10:11.882Z,19.25
2019-04-01T03:12:40.613Z,20.02
2019-04-01T03:15:09.309Z,20.80
2019-04-01T03:17:37.843Z,23.75
2019-04-01T03:20:07.565Z,20.48
2019-04-01T03:22:36.316Z,19.60
2019-04-01T03:25:06.240Z,19.75
2019-04-01T03:27:34.703Z,25.00
2019-04-01T03:30:03.758Z,23.85
2019-04-01T03:32:32.513Z,23.15
2019-04-01T03:35:01.632Z,26.42
2019-04-01T03:37:30.635Z,23.02
2019-04-01T03:39:59.508Z,21.90
2019-04-01T03:42:27.969Z,21.12
2019-04-01T03:44:56.455Z,21.77
2019-04-01T03:47:24.923Z,22.22
2019-04-01T03:49:53.414Z,21.02
2019-04-01T03:52:22.258Z,25.85
2019-04-01T03:54:51.142Z,26.15
2019-04-01T03:57:20.041Z,24.57
2019-04-01T03:59:48.576Z,22.90
2019-04-01T04:02:17.416Z,18.62
2019-04-01T04:04:45.886Z,19.60
2019-04-01T04:07:14.444Z,20.27
2019-04-01T04:09:42.909Z,18.98
2019-04-01T04:12:11.388Z,19.12
2019-04-01T04:14:39.847Z,19.62
2019-04-01T04:17:08.340Z,23.95
2019-04-01T04:19:36.876Z,21.82
2019-04-01T04:22:05.419Z,21.02
2019-04-01T04:24:33.886Z,17.00
2019-04-01T04:27:02.359Z,17.02
2019-04-01T04:29:31.173Z,17.75
2019-04-01T04:31:59.967Z,14.33
2019-04-01T04:34:28.499Z,16.67
2019-04-01T04:36:56.987Z,18.77
2019-04-01T04:39:25.523Z,15.75
2019-04-01T04:41:54.007Z,14.65
2019-04-01T04:44:22.475Z,17.70
2019-04-01T04:46:50.967Z,14.98
2019-04-01T04:49:19.497Z,15.63
2019-04-01T04:51:47.971Z,14.25
2019-04-01T04:54:16.439Z,16.17
2019-04-01T04:56:45.236Z,14.43
2019-04-01T04:59:13.768Z,15.72
2019-04-01T05:01:42.248Z,14.80
2019-04-01T05:04:10.998Z,18.73
2019-04-01T05:06:39.555Z,17.82
2019-04-01T05:09:08.375Z,15.08
2019-04-01T05:11:36.926Z,15.75
2019-04-01T05:14:05.396Z,17.92
2019-04-01T05:16:34.347Z,19.02
2019-04-01T05:19:02.803Z,17.05
2019-04-01T05:21:32.319Z,16.07
2019-04-01T05:24:01.495Z,15.75
2019-04-01T05:26:31.412Z,15.78
2019-04-01T05:29:01.111Z,16.07
2019-04-01T05:31:30.731Z,15.83
2019-04-01T05:34:01.732Z,18.62
2019-04-01T05:36:31.777Z,19.70
2019-04-01T05:39:00.384Z,17.82
2019-04-01T05:41:28.865Z,18.27
2019-04-01T05:43:57.405Z,18.73
2019-04-01T05:46:25.879Z,20.23
2019-04-01T05:48:54.334Z,20.05
2019-04-01T05:51:22.817Z,20.20
2019-04-01T05:53:51.285Z,18.07
2019-04-01T05:56:19.819Z,17.80
2019-04-01T05:58:48.308Z,17.55
2019-04-01T06:01:18.407Z,17.35
2019-04-01T06:03:46.959Z,15.60
2019-04-01T06:06:15.494Z,17.02
2019-04-01T06:08:43.972Z,15.78
2019-04-01T06:11:12.803Z,15.03
2019-04-01T06:13:41.701Z,15.08
2019-04-01T06:16:10.235Z,15.85
2019-04-01T06:18:39.084Z,14.87
2019-04-01T06:21:07.679Z,14.38
2019-04-01T06:23:36.234Z,15.00
2019-04-01T06:26:05.112Z,14.00
2019-04-01T06:28:33.642Z,11.80
2019-04-01T06:31:02.845Z,12.85
2019-04-01T06:33:31.390Z,10.98
2019-04-01T06:35:59.849Z,9.80
2019-04-01T06:38:28.599Z,10.98
2019-04-01T06:40:57.055Z,9.50
2019-04-01T06:43:25.863Z,9.45
2019-04-01T06:45:54.316Z,9.28
2019-04-01T06:48:23.151Z,9.65
2019-04-01T06:50:52.347Z,8.13
2019-04-01T06:53:20.827Z,8.35
2019-04-01T06:55:49.736Z,7.78
2019-04-01T06:58:18.741Z,8.60
2019-04-01T07:00:47.531Z,6.00
2019-04-01T07:03:18.599Z,6.53
2019-04-01T07:05:46.723Z,7.83
2019-04-01T07:08:15.328Z,7.25
2019-04-01T07:10:43.775Z,6.22
2019-04-01T07:13:12.248Z,6.05
2019-04-01T07:15:41.007Z,6.30
2019-04-01T07:18:09.792Z,5.78
2019-04-01T07:20:38.692Z,5.62
2019-04-01T07:23:07.241Z,6.58
2019-04-01T07:25:35.972Z,5.53
2019-04-01T07:28:04.443Z,5.67
2019-04-01T07:30:33.252Z,6.20
2019-04-01T07:33:02.023Z,5.70
2019-04-01T07:35:30.543Z,5.53
2019-04-01T07:37:59.323Z,5.53
2019-04-01T07:40:27.774Z,5.45
2019-04-01T07:42:56.315Z,5.80
2019-04-01T07:45:24.783Z,5.80
2019-04-01T07:47:53.396Z,5.20
2019-04-01T07:50:22.264Z,6.62
2019-04-01T07:52:50.884Z,5.87
2019-04-01T07:55:19.639Z,5.80
2019-04-01T07:57:48.110Z,6.55
2019-04-01T08:00:17.104Z,6.28
2019-04-01T08:02:48.852Z,6.80
2019-04-01T08:05:15.751Z,6.37
2019-04-01T08:07:44.528Z,6.70
2019-04-01T08:10:13.324Z,5.45
2019-04-01T08:12:41.799Z,5.65
2019-04-01T08:15:11.012Z,6.12
2019-04-01T08:17:39.483Z,5.20
2019-04-01T08:20:08.579Z,5.28
2019-04-01T08:22:37.500Z,6.20
2019-04-01T08:25:09.022Z,4.90
2019-04-01T08:27:38.271Z,5.03
2019-04-01T08:30:08.539Z,5.80
2019-04-01T08:32:37.372Z,6.58
2019-04-01T08:35:08.777Z,5.60
2019-04-01T08:37:39.941Z,5.85
2019-04-01T08:40:09.832Z,5.70
2019-04-01T08:42:38.687Z,4.62
2019-04-01T08:45:09.058Z,5.45
2019-04-01T08:47:37.602Z,5.05
2019-04-01T08:50:06.732Z,5.30
2019-04-01T08:52:35.907Z,4.90
2019-04-01T08:55:07.390Z,5.12
2019-04-01T08:57:35.852Z,5.78
2019-04-01T09:00:06.779Z,5.53
2019-04-01T09:02:35.888Z,5.05
2019-04-01T09:05:05.770Z,5.50
2019-04-01T09:07:34.446Z,5.08
2019-04-01T09:10:03.592Z,5.45
2019-04-01T09:12:32.116Z,5.12
2019-04-01T09:15:01.593Z,5.37
2019-04-01T09:17:30.119Z,6.60
2019-04-01T09:19:58.973Z,5.30
2019-04-01T09:22:27.517Z,5.25
2019-04-01T09:24:56.059Z,5.70
2019-04-01T09:27:24.521Z,5.03
2019-04-01T09:29:53.075Z,5.80
2019-04-01T09:32:21.669Z,5.75
2019-04-01T09:34:50.157Z,6.75
2019-04-01T09:37:18.686Z,6.87
2019-04-01T09:39:47.171Z,6.80
2019-04-01T09:42:15.627Z,7.28
2019-04-01T09:44:44.106Z,7.58
2019-04-01T09:47:12.931Z,6.92
2019-04-01T09:49:41.823Z,6.65
2019-04-01T09:52:10.619Z,7.70
2019-04-01T09:54:39.100Z,6.92
2019-04-01T09:57:17.203Z,6.28
2019-04-01T09:59:38.124Z,6.10
2019-04-01T10:02:06.646Z,6.10
2019-04-01T10:04:35.126Z,7.22
2019-04-01T10:07:03.655Z,8.35
2019-04-01T10:09:32.471Z,8.23
2019-04-01T10:12:01.368Z,9.08
2019-04-01T10:14:30.164Z,7.92
2019-04-01T10:16:58.951Z,8.40
2019-04-01T10:19:27.431Z,7.47
2019-04-01T10:21:55.967Z,8.73
2019-04-01T10:24:24.706Z,9.08
2019-04-01T10:26:53.520Z,9.45
2019-04-01T10:29:22.084Z,9.93
2019-04-01T10:31:50.891Z,9.38
2019-04-01T10:34:19.684Z,9.35
2019-04-01T10:36:48.139Z,9.95
2019-04-01T10:39:17.146Z,8.75
2019-04-01T10:41:45.643Z,9.60
2019-04-01T10:44:14.448Z,9.60
2019-04-01T10:46:43.263Z,9.98
2019-04-01T10:49:12.168Z,9.73
2019-04-01T10:51:41.157Z,10.30
2019-04-01T10:54:10.125Z,10.63
2019-04-01T10:56:38.714Z,10.35
2019-04-01T10:59:07.543Z,10.28
2019-04-01T11:01:36.093Z,9.55
2019-04-01T11:04:04.987Z,9.50
2019-04-01T11:06:33.483Z,9.65
2019-04-01T11:09:02.181Z,10.20
2019-04-01T11:11:30.836Z,10.00
2019-04-01T11:13:59.316Z,11.48
2019-04-01T11:16:31.464Z,11.83
2019-04-01T11:18:58.246Z,10.58
2019-04-01T11:21:27.368Z,10.15
2019-04-01T11:23:55.847Z,10.30
2019-04-01T11:26:24.317Z,10.60
2019-04-01T11:28:52.802Z,10.90
2019-04-01T11:31:21.269Z,10.23
2019-04-01T11:33:50.132Z,11.10
2019-04-01T11:36:18.666Z,12.13
2019-04-01T11:38:47.516Z,11.22
2019-04-01T11:41:16.039Z,11.40
2019-04-01T11:43:44.918Z,11.68
2019-04-01T11:46:13.844Z,10.72
2019-04-01T11:48:42.309Z,11.78
2019-04-01T11:51:13.937Z,11.18
2019-04-01T11:53:42.699Z,11.65
2019-04-01T11:56:11.491Z,11.35
2019-04-01T11:58:40.023Z,11.43
2019-04-01T12:01:09.000Z,12.18
2019-04-01T12:03:37.510Z,13.30
2019-04-01T12:06:06.352Z,13.22
2019-04-01T12:08:35.166Z,12.35
2019-04-01T12:11:03.950Z,10.70
2019-04-01T12:13:32.479Z,12.90
2019-04-01T12:16:01.031Z,12.05
2019-04-01T12:18:29.491Z,12.33
2019-04-01T12:20:57.971Z,12.10
2019-04-01T12:23:26.431Z,11.22
2019-04-01T12:25:55.259Z,11.43
2019-04-01T12:28:23.789Z,11.25
2019-04-01T12:30:52.428Z,10.75
2019-04-01T12:33:20.911Z,11.93
2019-04-01T12:35:49.819Z,10.18
2019-04-01T12:38:18.714Z,11.35
2019-04-01T12:40:48.436Z,11.15
2019-04-01T12:43:16.896Z,11.48
2019-04-01T12:45:45.813Z,11.63
2019-04-01T12:48:14.419Z,11.60
2019-04-01T12:50:42.967Z,10.95
2019-04-01T12:53:11.429Z,11.55
2019-04-01T12:55:40.580Z,10.85
2019-04-01T12:58:10.707Z,10.48
2019-04-01T13:00:39.608Z,10.88
2019-04-01T13:03:08.075Z,10.35
2019-04-01T13:05:36.551Z,10.00
2019-04-01T13:08:05.365Z,10.93
2019-04-01T13:10:34.187Z,11.33
2019-04-01T13:13:02.945Z,10.50
2019-04-01T13:15:31.421Z,9.75
2019-04-01T13:17:59.952Z,9.73
2019-04-01T13:20:37.530Z,10.30
2019-04-01T13:22:59.050Z,10.38
2019-04-01T13:25:27.849Z,9.95
2019-04-01T13:27:57.117Z,10.20
2019-04-01T13:30:26.720Z,9.35
2019-04-01T13:32:55.444Z,10.20
2019-04-01T13:35:23.918Z,10.88
2019-04-01T13:37:52.378Z,11.05
2019-04-01T13:40:21.205Z,10.05
2019-04-01T13:42:49.735Z,10.10
2019-04-01T13:45:18.585Z,10.48
2019-04-01T13:47:47.111Z,11.53
2019-04-01T13:50:16.530Z,10.65
2019-04-01T13:52:45.479Z,10.85
2019-04-01T13:55:14.104Z,9.93
2019-04-01T13:57:42.964Z,10.00
2019-04-01T14:00:11.940Z,10.30
2019-04-01T14:03:00.480Z,9.73
2019-04-01T14:05:29.349Z,10.08
2019-04-01T14:07:58.081Z,10.53
2019-04-01T14:10:26.875Z,9.60
2019-04-01T14:13:01.284Z,9.53
2019-04-01T14:15:30.087Z,10.00
2019-04-01T14:17:58.551Z,11.10
2019-04-01T14:20:27.371Z,10.30
2019-04-01T14:22:55.839Z,9.68
2019-04-01T14:25:24.368Z,9.85
2019-04-01T14:27:53.131Z,8.88
2019-04-01T14:30:21.591Z,9.23
2019-04-01T14:32:50.071Z,10.18
2019-04-01T14:35:18.897Z,9.50
2019-04-01T14:37:47.447Z,9.98
2019-04-01T14:40:15.975Z,9.93
2019-04-01T14:42:46.426Z,9.23
2019-04-01T14:45:14.983Z,8.65
2019-04-01T14:47:56.599Z,10.18
2019-04-01T14:50:13.994Z,10.63
2019-04-01T14:52:42.558Z,10.25
2019-04-01T14:55:11.223Z,10.03
2019-04-01T14:57:39.702Z,10.53
2019-04-01T15:00:11.539Z,9.65
2019-04-01T15:02:40.103Z,10.23
2019-04-01T15:05:08.916Z,9.95
2019-04-01T15:07:37.438Z,9.15
2019-04-01T15:10:08.011Z,9.08
2019-04-01T15:12:36.487Z,9.80
2019-04-01T15:15:07.388Z,9.25
2019-04-01T15:17:37.039Z,8.88
2019-04-01T15:20:07.344Z,9.03
2019-04-01T15:22:36.156Z,9.58
2019-04-01T15:25:06.936Z,8.48
2019-04-01T15:27:35.482Z,8.90
2019-04-01T15:30:05.763Z,8.78
2019-04-01T15:32:34.319Z,8.63
2019-04-01T15:35:02.855Z,9.05
2019-04-01T15:37:32.275Z,8.40
2019-04-01T15:40:00.903Z,8.93
2019-04-01T15:42:29.722Z,8.50
2019-04-01T15:44:58.253Z,8.80
2019-04-01T15:47:27.101Z,9.30
2019-04-01T15:49:56.023Z,8.18
2019-04-01T15:52:24.545Z,8.35
2019-04-01T15:54:53.004Z,8.45
2019-04-01T15:57:21.861Z,8.40
2019-04-01T15:59:50.664Z,8.68
2019-04-01T16:02:19.485Z,8.48
2019-04-01T16:04:48.335Z,9.10
2019-04-01T16:07:17.123Z,8.10
2019-04-01T16:09:45.958Z,8.40
2019-04-01T16:12:16.057Z,8.88
2019-04-01T16:14:45.051Z,9.20
2019-04-01T16:17:13.855Z,9.10
2019-04-01T16:19:42.736Z,8.20
2019-04-01T16:22:11.203Z,9.73
2019-04-01T16:24:39.668Z,8.73
2019-04-01T16:27:08.224Z,8.13
2019-04-01T16:29:36.679Z,8.78
2019-04-01T16:32:05.146Z,8.50
2019-04-01T16:34:34.849Z,9.05
2019-04-01T16:37:04.089Z,7.70
2019-04-01T16:39:32.979Z,8.55
2019-04-01T16:42:01.503Z,8.43
2019-04-01T16:44:30.360Z,7.92
2019-04-01T16:46:58.887Z,8.03
2019-04-01T16:49:27.364Z,8.65
2019-04-01T16:51:55.831Z,8.03
2019-04-01T16:54:24.307Z,8.13
2019-04-01T16:56:52.771Z,7.67
2019-04-01T16:59:21.579Z,7.55
2019-04-01T17:01:50.087Z,7.33
2019-04-01T17:04:18.959Z,7.58
2019-04-01T17:06:47.411Z,7.75
2019-04-01T17:09:15.898Z,6.87
2019-04-01T17:11:44.423Z,6.87
2019-04-01T17:14:12.907Z,6.90
2019-04-01T17:16:41.369Z,7.42
2019-04-01T17:19:10.212Z,6.90
2019-04-01T17:21:39.083Z,6.75
2019-04-01T17:24:07.631Z,5.90
2019-04-01T17:26:45.051Z,5.70
2019-04-01T17:29:13.847Z,5.95
2019-04-01T17:31:43.873Z,5.05
2019-04-01T17:34:12.764Z,5.42
2019-04-01T17:36:41.560Z,5.37
2019-04-01T17:39:12.293Z,5.12
2019-04-01T17:41:46.249Z,4.97
2019-04-01T17:44:14.240Z,5.33
2019-04-01T17:46:43.543Z,3.85
2019-04-01T17:49:12.375Z,4.30
2019-04-01T17:51:42.367Z,4.37
2019-04-01T17:54:10.845Z,4.03
2019-04-01T17:56:39.451Z,3.98
2019-04-01T17:59:08.003Z,5.00
2019-04-01T18:01:36.531Z,4.62
2019-04-01T18:04:05.341Z,3.95
2019-04-01T18:06:33.803Z,4.53
2019-04-01T18:09:03.004Z,4.67
2019-04-01T18:11:31.452Z,3.87
2019-04-01T18:14:02.747Z,4.83
2019-04-01T18:16:31.496Z,4.90
2019-04-01T18:19:00.021Z,4.30
2019-04-01T18:21:28.935Z,5.08
2019-04-01T18:23:57.732Z,5.35
2019-04-01T18:26:26.522Z,5.25
2019-04-01T18:28:55.315Z,5.22
2019-04-01T18:31:23.792Z,5.30
2019-04-01T18:33:56.343Z,4.40
2019-04-01T18:36:23.140Z,5.60
2019-04-01T18:38:51.922Z,5.10
2019-04-01T18:41:20.407Z,5.50
2019-04-01T18:43:49.303Z,5.40
2019-04-01T18:46:20.874Z,5.47
2019-04-01T18:48:48.520Z,5.92
2019-04-01T18:51:20.165Z,5.20
2019-04-01T18:53:47.243Z,5.15
2019-04-01T18:56:15.728Z,4.95
2019-04-01T18:58:44.519Z,5.65
2019-04-01T19:01:13.299Z,5.03
2019-04-01T19:03:43.074Z,5.97
2019-04-01T19:06:12.019Z,5.80
2019-04-01T19:08:40.817Z,4.67
2019-04-01T19:11:10.205Z,4.87
2019-04-01T19:13:39.044Z,5.42
2019-04-01T19:16:08.639Z,5.97
2019-04-01T19:18:39.709Z,5.80
2019-04-01T19:21:08.772Z,5.42
2019-04-01T19:23:37.560Z,5.95
2019-04-01T19:26:06.031Z,5.92
2019-04-01T19:28:34.863Z,4.67
2019-04-01T19:31:03.756Z,5.10
2019-04-01T19:33:33.764Z,5.33
2019-04-01T19:36:02.652Z,5.95
2019-04-01T19:38:31.179Z,5.25
2019-04-01T19:41:00.217Z,5.45
2019-04-01T19:43:28.880Z,5.75
2019-04-01T19:45:57.360Z,4.75
2019-04-01T19:48:25.806Z,6.37
2019-04-01T19:50:54.287Z,4.90
2019-04-01T19:53:24.140Z,6.90
2019-04-01T19:55:53.085Z,5.42
2019-04-01T19:58:21.892Z,4.92
2019-04-01T20:00:50.784Z,5.15
2019-04-01T20:03:19.331Z,5.42
2019-04-01T20:05:48.195Z,5.25
2019-04-01T20:08:17.716Z,6.78
2019-04-01T20:10:46.640Z,5.97
2019-04-01T20:13:15.331Z,5.62
2019-04-01T20:15:44.156Z,5.60
2019-04-01T20:18:12.948Z,6.03
2019-04-01T20:20:41.750Z,5.60
2019-04-01T20:23:10.635Z,4.72
2019-04-01T20:25:39.431Z,5.55
2019-04-01T20:28:07.908Z,5.47
2019-04-01T20:30:37.948Z,5.65
2019-04-01T20:33:16.819Z,5.40
2019-04-01T20:35:36.735Z,6.08
2019-04-01T20:38:05.221Z,5.50
2019-04-01T20:40:34.016Z,5.47
2019-04-01T20:43:02.761Z,6.08
2019-04-01T20:45:31.511Z,5.17
2019-04-01T20:48:00.304Z,6.15
2019-04-01T20:50:28.760Z,6.03
2019-04-01T20:52:57.582Z,5.53
2019-04-01T20:55:26.034Z,5.55
2019-04-01T20:57:54.867Z,5.37
2019-04-01T21:00:23.685Z,6.33
2019-04-01T21:02:52.231Z,5.22
2019-04-01T21:05:21.035Z,5.67
2019-04-01T21:07:49.611Z,5.50
2019-04-01T21:10:18.214Z,5.30
2019-04-01T21:12:46.705Z,6.53
2019-04-01T21:15:16.004Z,5.65
2019-04-01T21:17:44.551Z,5.90
2019-04-01T21:20:13.514Z,6.55
2019-04-01T21:22:42.451Z,5.80
2019-04-01T21:25:10.908Z,5.25
2019-04-01T21:27:39.384Z,5.25
2019-04-01T21:30:10.139Z,5.30
2019-04-01T21:32:38.996Z,5.70
2019-04-01T21:35:09.068Z,5.25
2019-04-01T21:37:38.008Z,6.20
2019-04-01T21:40:07.958Z,5.90
2019-04-01T21:42:37.028Z,6.15
2019-04-01T21:45:08.891Z,5.78
2019-04-01T21:47:37.437Z,6.22
2019-04-01T21:50:06.939Z,5.72
2019-04-01T21:52:37.208Z,6.00
2019-04-01T21:55:08.160Z,5.75
2019-04-01T21:57:36.597Z,5.95
2019-04-01T22:00:18.059Z,6.28
2019-04-01T22:02:58.479Z,6.30
2019-04-01T22:05:26.940Z,6.03
2019-04-01T22:07:55.856Z,5.33
2019-04-01T22:10:24.307Z,5.67
2019-04-01T22:12:52.805Z,6.37
2019-04-01T22:15:22.224Z,6.58
2019-04-01T22:17:51.231Z,6.45
2019-04-01T22:20:20.023Z,5.95
2019-04-01T22:22:48.503Z,5.70
2019-04-01T22:25:16.961Z,6.50
2019-04-01T22:27:45.783Z,6.45
2019-04-01T22:30:17.104Z,7.20
2019-04-01T22:32:45.475Z,6.05
2019-04-01T22:35:14.315Z,6.33
2019-04-01T22:37:42.771Z,6.12
2019-04-01T22:40:11.389Z,5.58
2019-04-01T22:42:39.919Z,6.85
2019-04-01T22:45:08.877Z,5.40
2019-04-01T22:47:37.344Z,5.92
2019-04-01T22:50:07.154Z,6.75
2019-04-01T22:52:35.823Z,7.35
2019-04-01T22:55:05.887Z,6.47
2019-04-01T22:57:34.691Z,6.17
2019-04-01T23:00:03.890Z,6.37
2019-04-01T23:02:32.363Z,7.22
2019-04-01T23:05:01.108Z,6.62
2019-04-01T23:07:29.956Z,6.78
2019-04-01T23:09:58.529Z,8.23
2019-04-01T23:12:27.063Z,7.35
2019-04-01T23:14:55.825Z,6.35
2019-04-01T23:17:24.348Z,6.47
2019-04-01T23:19:52.842Z,8.63
2019-04-01T23:22:21.294Z,6.72
2019-04-01T23:24:50.078Z,6.65
2019-04-01T23:27:18.607Z,7.55
2019-04-01T23:29:47.450Z,8.73
2019-04-01T23:32:16.391Z,7.05
2019-04-01T23:34:45.663Z,7.70
2019-04-01T23:37:14.216Z,7.22
2019-04-01T23:39:42.750Z,7.40
2019-04-01T23:42:11.523Z,7.05
2019-04-01T23:44:40.317Z,7.10
2019-04-01T23:47:09.110Z,8.13
2019-04-01T23:49:37.595Z,7.35
2019-04-01T23:52:06.046Z,6.65
2019-04-01T23:54:35.075Z,7.15
2019-04-01T23:57:03.801Z,6.70
2019-04-01T23:59:32.410Z,7.00
